createdAt,value
2019-01-05T00:03:17.660Z,98.18
2019-01-05T00:06:03.646Z,98.42
2019-01-05T00:08:49.646Z,98.43
2019-01-05T00:11:35.620Z,98.26
2019-01-05T00:17:22.657Z,98.12
2019-01-05T00:20:30.219Z,98.22
2019-01-05T00:26:09.749Z,98.54
2019-01-05T00:31:50.086Z,98.47
2019-01-05T00:34:57.632Z,98.25
2019-01-05T00:40:37.589Z,98.15
2019-01-05T00:43:23.764Z,98.19
2019-01-05T00:46:31.313Z,98.19
2019-01-05T00:52:52.125Z,98.19
2019-01-05T00:55:40.109Z,98.04
2019-01-05T00:58:26.105Z,98.05
2019-01-05T01:01:12.291Z,98.08
2019-01-05T01:03:58.277Z,98.11
2019-01-05T01:06:44.263Z,98.04
2019-01-05T01:09:30.264Z,97.87
2019-01-05T01:15:03.884Z,97.74
2019-01-05T01:17:49.880Z,97.83
2019-01-05T01:20:35.862Z,97.80
2019-01-05T01:26:27.550Z,97.87
2019-01-05T01:29:35.122Z,97.84
2019-01-05T01:32:21.095Z,97.75
2019-01-05T01:38:02.990Z,97.73
2019-01-05T01:40:49.344Z,97.82
2019-01-05T01:46:39.652Z,97.92
2019-01-05T01:49:25.727Z,98.00
2019-01-05T01:52:33.277Z,98.06
2019-01-05T01:55:19.368Z,98.00
2019-01-05T01:58:05.478Z,97.95
2019-01-05T02:01:13.026Z,97.86
2019-01-05T02:04:20.576Z,97.78
2019-01-05T02:10:28.946Z,97.79
2019-01-05T02:13:36.495Z,97.79
2019-01-05T02:23:16.184Z,97.78
2019-01-05T02:35:30.849Z,97.83
2019-01-05T02:38:56.338Z,97.84
2019-01-05T02:42:03.901Z,97.91
2019-01-05T02:45:29.384Z,97.74
2019-01-05T02:51:53.827Z,97.86
2019-01-05T02:55:01.386Z,97.91
2019-01-05T02:58:26.910Z,97.97
2019-01-05T03:01:34.443Z,97.90
2019-01-05T03:04:59.957Z,97.87
2019-01-05T03:08:25.441Z,97.80
2019-01-05T03:11:50.956Z,97.75
2019-01-05T03:15:16.462Z,97.83
2019-01-05T03:18:24.070Z,97.81
2019-01-05T03:28:20.115Z,97.73
2019-01-05T03:34:41.765Z,97.87
2019-01-05T03:41:08.184Z,97.65
2019-01-05T03:47:34.205Z,97.71
2019-01-05T03:50:59.996Z,97.70
2019-01-05T03:54:07.545Z,97.77
2019-01-05T04:03:34.095Z,97.79
2019-01-05T04:15:44.416Z,97.86
2019-01-05T04:31:15.330Z,97.71
2019-01-05T04:34:22.889Z,97.77
2019-01-05T04:41:18.611Z,97.74
2019-01-05T04:44:26.144Z,97.76
2019-01-05T04:47:33.721Z,97.85
2019-01-05T04:50:41.267Z,97.72
2019-01-05T04:57:21.608Z,97.89
2019-01-05T05:00:47.115Z,97.88
2019-01-05T05:04:12.638Z,97.96
2019-01-05T05:07:38.127Z,97.85
2019-01-05T05:11:03.962Z,97.78
2019-01-05T05:14:29.464Z,97.81
2019-01-05T05:17:37.016Z,97.97
2019-01-05T05:21:02.536Z,98.13
2019-01-05T05:24:28.024Z,97.94
2019-01-05T05:27:35.569Z,97.95
2019-01-05T05:31:01.092Z,98.05
2019-01-05T05:37:39.895Z,97.86
2019-01-05T05:44:04.435Z,97.80
2019-01-05T05:54:16.250Z,97.63
2019-01-05T06:12:31.634Z,97.73
2019-01-05T06:18:39.613Z,97.62
2019-01-05T06:22:05.149Z,97.75
2019-01-05T06:25:31.978Z,97.76
2019-01-05T06:28:57.491Z,97.89
2019-01-05T06:35:24.433Z,98.04
2019-01-05T06:41:48.592Z,98.00
2019-01-05T06:48:12.990Z,97.94
2019-01-05T06:57:45.406Z,97.83
2019-01-05T07:01:10.900Z,97.84
2019-01-05T07:04:36.431Z,97.83
2019-01-05T07:08:01.938Z,97.88
2019-01-05T07:17:32.628Z,97.90
2019-01-05T07:20:40.198Z,97.83
2019-01-05T07:27:15.810Z,97.96
2019-01-05T07:30:41.299Z,98.18
2019-01-05T07:34:07.628Z,98.16
2019-01-05T07:37:33.122Z,97.87
2019-01-05T07:40:40.685Z,97.82
2019-01-05T07:44:06.185Z,97.83
2019-01-05T07:50:51.691Z,97.71
2019-01-05T07:53:59.266Z,97.57
2019-01-05T07:57:06.813Z,97.56
2019-01-05T08:03:45.876Z,97.76
2019-01-05T08:07:12.159Z,97.56
2019-01-05T08:10:19.720Z,97.56
2019-01-05T08:13:45.226Z,97.78
2019-01-05T08:16:52.773Z,97.79
2019-01-05T08:20:00.305Z,97.72
2019-01-05T08:23:25.827Z,97.25
2019-01-05T08:36:30.633Z,96.51
2019-01-05T08:39:56.435Z,96.81
2019-01-05T08:52:51.362Z,95.25
2019-01-05T08:56:16.881Z,95.82
2019-01-05T08:59:42.369Z,94.12
2019-01-05T09:03:07.880Z,94.94
2019-01-05T09:06:33.680Z,95.89
2019-01-05T09:09:41.242Z,96.06
2019-01-05T09:13:06.716Z,95.69
2019-01-05T09:16:14.573Z,95.36
2019-01-05T09:22:53.711Z,94.34
2019-01-05T09:26:01.550Z,95.05
2019-01-05T09:29:27.036Z,95.42
2019-01-05T09:32:52.551Z,94.76
2019-01-05T09:42:50.342Z,94.29
2019-01-05T09:45:57.945Z,94.78
2019-01-05T09:49:23.410Z,94.73
2019-01-05T09:52:31.278Z,93.95
2019-01-05T09:55:57.360Z,94.72
2019-01-05T10:02:05.916Z,94.61
2019-01-05T10:08:55.355Z,94.98
2019-01-05T10:12:20.845Z,94.64
2019-01-05T10:15:28.667Z,95.17
2019-01-05T10:21:50.030Z,94.83
2019-01-05T10:28:13.539Z,94.53
2019-01-05T10:31:39.354Z,94.21
2019-01-05T10:34:46.920Z,94.01
2019-01-05T10:41:10.778Z,94.17
2019-01-05T10:47:19.389Z,94.19
2019-01-05T10:50:44.910Z,94.00
2019-01-05T11:00:24.097Z,94.23
2019-01-05T11:12:53.223Z,94.16
2019-01-05T11:16:19.013Z,94.29
2019-01-05T11:19:26.564Z,94.52
2019-01-05T11:25:52.919Z,94.77
2019-01-05T11:29:00.496Z,94.79
2019-01-05T11:38:28.081Z,94.97
2019-01-05T11:41:53.889Z,94.74
2019-01-05T11:45:19.659Z,95.14
2019-01-05T11:48:45.177Z,95.09
2019-01-05T11:52:10.991Z,94.80
2019-01-05T11:55:36.493Z,94.85
2019-01-05T11:58:44.048Z,95.37
2019-01-05T12:08:05.686Z,95.30
2019-01-05T12:11:31.451Z,95.47
2019-01-05T12:14:56.949Z,95.39
2019-01-05T12:18:04.534Z,95.41
2019-01-05T12:21:30.047Z,95.50
2019-01-05T12:31:00.613Z,95.29
2019-01-05T12:34:26.143Z,95.63
2019-01-05T12:37:51.621Z,95.40
2019-01-05T12:41:17.394Z,95.52
2019-01-05T12:44:25.069Z,95.66
2019-01-05T12:47:32.879Z,95.60
2019-01-05T12:50:58.410Z,95.71
2019-01-05T12:54:05.952Z,95.50
2019-01-05T12:57:13.535Z,95.62
2019-01-05T13:00:39.336Z,95.38
2019-01-05T13:03:47.169Z,95.15
2019-01-05T13:06:54.706Z,95.30
2019-01-05T13:10:20.220Z,95.31
2019-01-05T13:13:45.725Z,95.03
2019-01-05T13:17:11.531Z,95.07
2019-01-05T13:20:19.081Z,94.33
2019-01-05T13:23:26.948Z,94.86
2019-01-05T13:26:34.486Z,94.81
2019-01-05T13:29:42.067Z,94.88
2019-01-05T13:36:08.029Z,94.02
2019-01-05T13:42:55.158Z,93.40
2019-01-05T13:49:19.187Z,94.45
2019-01-05T13:52:44.977Z,94.54
2019-01-05T14:01:27.034Z,93.51
2019-01-05T14:06:47.178Z,93.52
2019-01-05T14:09:33.461Z,93.44
2019-01-05T14:14:53.630Z,94.16
2019-01-05T14:17:40.443Z,94.25
2019-01-05T14:20:26.453Z,93.46
2019-01-05T14:23:12.491Z,93.14
2019-01-05T14:25:58.499Z,92.91
2019-01-05T14:28:44.504Z,92.43
2019-01-05T14:31:30.490Z,92.51
2019-01-05T14:34:16.782Z,92.27
2019-01-05T14:40:03.362Z,92.82
2019-01-05T14:42:49.362Z,92.91
2019-01-05T14:45:35.380Z,92.48
2019-01-05T14:48:21.652Z,92.25
2019-01-05T14:51:07.666Z,92.22
2019-01-05T15:01:53.049Z,92.22
2019-01-05T15:04:39.066Z,92.51
2019-01-05T15:07:25.058Z,92.45
2019-01-05T15:10:11.074Z,92.39
2019-01-05T15:12:57.067Z,92.34
2019-01-05T15:15:43.076Z,91.92
2019-01-05T15:18:29.065Z,91.63
2019-01-05T15:23:52.499Z,91.87
2019-01-05T15:26:38.501Z,91.66
2019-01-05T15:29:24.740Z,91.69
2019-01-05T15:32:10.747Z,92.06
2019-01-05T15:40:18.035Z,92.14
2019-01-05T15:43:04.040Z,91.73
2019-01-05T15:48:37.644Z,91.93
2019-01-05T15:51:23.645Z,92.08
2019-01-05T15:54:09.650Z,92.63
2019-01-05T15:56:55.668Z,92.31
2019-01-05T15:59:41.672Z,91.95
2019-01-05T16:02:27.661Z,92.48
2019-01-05T16:05:13.667Z,92.14
2019-01-05T16:10:47.261Z,92.41
2019-01-05T16:13:33.278Z,91.57
2019-01-05T16:16:19.278Z,91.35
2019-01-05T16:19:05.286Z,91.72
2019-01-05T16:21:51.281Z,92.17
2019-01-05T16:24:37.286Z,92.34
2019-01-05T16:27:23.276Z,92.02
2019-01-05T16:30:09.294Z,91.33
2019-01-05T16:32:55.294Z,91.53
2019-01-05T16:35:41.567Z,91.84
2019-01-05T16:38:27.574Z,91.75
2019-01-05T16:41:13.578Z,90.86
2019-01-05T16:43:59.849Z,91.11
2019-01-05T16:46:45.858Z,90.93
2019-01-05T16:49:31.852Z,90.28
2019-01-05T16:52:17.861Z,90.51
2019-01-05T16:55:03.867Z,91.28
2019-01-05T16:57:49.865Z,90.61
2019-01-05T17:00:35.878Z,90.69
2019-01-05T17:06:09.467Z,91.06
2019-01-05T17:08:55.455Z,91.20
2019-01-05T17:11:41.469Z,90.25
2019-01-05T17:14:27.464Z,90.28
2019-01-05T17:22:21.369Z,89.80
2019-01-05T17:25:07.366Z,88.80
2019-01-05T17:27:53.386Z,90.00
2019-01-05T17:30:39.383Z,90.33
2019-01-05T17:33:25.375Z,90.20
2019-01-05T17:36:11.363Z,89.74
2019-01-05T17:41:31.768Z,89.74
2019-01-05T17:44:17.799Z,90.48
2019-01-05T17:47:03.876Z,90.63
2019-01-05T17:49:49.876Z,90.79
2019-01-05T17:52:35.896Z,90.78
2019-01-05T17:55:21.871Z,89.91
2019-01-05T17:58:07.899Z,88.73
2019-01-05T18:00:53.900Z,88.73
2019-01-05T18:03:39.891Z,88.50
2019-01-05T18:09:00.242Z,89.29
2019-01-05T18:11:46.220Z,89.69
2019-01-05T18:17:06.481Z,89.69
2019-01-05T18:22:40.072Z,89.93
2019-01-05T18:25:26.115Z,89.95
2019-01-05T18:28:12.088Z,89.43
2019-01-05T18:30:58.106Z,88.90
2019-01-05T18:33:44.220Z,89.14
2019-01-05T18:36:30.226Z,89.76
2019-01-05T18:39:16.235Z,89.72
2019-01-05T18:42:02.260Z,89.38
2019-01-05T18:47:35.869Z,89.31
2019-01-05T18:58:44.796Z,89.06
2019-01-05T19:01:30.745Z,89.20
2019-01-05T19:04:16.775Z,89.32
2019-01-05T19:07:02.733Z,89.34
2019-01-05T19:09:48.741Z,88.52
2019-01-05T19:12:34.739Z,88.15
2019-01-05T19:15:20.758Z,88.05
2019-01-05T19:18:06.738Z,88.08
2019-01-05T19:20:52.753Z,87.95
2019-01-05T19:23:38.750Z,87.89
2019-01-05T19:26:24.808Z,88.20
2019-01-05T19:29:10.784Z,88.50
2019-01-05T19:31:56.782Z,88.67
2019-01-05T19:34:42.822Z,88.68
2019-01-05T19:40:02.642Z,88.04
2019-01-05T19:42:48.653Z,88.36
2019-01-05T19:48:08.587Z,88.41
2019-01-05T19:50:54.589Z,88.87
2019-01-05T19:53:40.592Z,89.11
2019-01-05T19:56:26.602Z,88.91
2019-01-05T20:02:00.209Z,88.65
2019-01-05T20:04:46.205Z,88.93
2019-01-05T20:07:32.200Z,89.05
2019-01-05T20:10:18.184Z,88.92
2019-01-05T20:13:04.189Z,88.67
2019-01-05T20:15:50.179Z,88.75
2019-01-05T20:21:09.799Z,89.10
2019-01-05T20:23:55.806Z,89.58
2019-01-05T20:26:41.809Z,89.26
2019-01-05T20:29:27.821Z,89.38
2019-01-05T20:32:13.801Z,89.18
2019-01-05T20:34:59.818Z,88.93
2019-01-05T20:37:45.805Z,88.73
2019-01-05T20:40:31.809Z,88.35
2019-01-05T20:43:17.806Z,88.87
2019-01-05T20:48:37.615Z,88.92
2019-01-05T20:51:23.616Z,89.03
2019-01-05T20:54:09.626Z,89.15
2019-01-05T20:56:55.619Z,89.37
2019-01-05T20:59:41.617Z,89.27
2019-01-05T21:02:29.137Z,89.56
2019-01-05T21:05:15.753Z,90.00
2019-01-05T21:08:01.745Z,89.29
2019-01-05T21:10:48.009Z,88.92
2019-01-05T21:13:34.010Z,88.83
2019-01-05T21:16:20.020Z,88.84
2019-01-05T21:19:05.999Z,89.24
2019-01-05T21:21:52.020Z,88.76
2019-01-05T21:24:38.003Z,88.79
2019-01-05T21:27:24.020Z,88.81
2019-01-05T21:32:57.619Z,88.53
2019-01-05T21:35:43.912Z,88.07
2019-01-05T21:38:29.904Z,88.79
2019-01-05T21:41:15.914Z,88.61
2019-01-05T21:46:49.501Z,88.66
2019-01-05T21:49:35.495Z,88.11
2019-01-05T21:54:55.693Z,88.44
2019-01-05T21:57:41.686Z,89.15
2019-01-05T22:03:28.483Z,89.69
2019-01-05T22:06:14.557Z,88.86
2019-01-05T22:09:00.577Z,89.07
2019-01-05T22:14:34.173Z,90.27
2019-01-05T22:17:20.409Z,89.57
2019-01-05T22:25:14.396Z,88.24
2019-01-05T22:33:25.482Z,88.00
2019-01-05T22:36:11.531Z,87.67
2019-01-05T22:38:57.812Z,87.94
2019-01-05T22:41:43.820Z,88.66
2019-01-05T22:47:17.410Z,88.58
2019-01-05T22:50:03.402Z,87.96
2019-01-05T22:55:23.688Z,87.84
2019-01-05T22:58:09.687Z,88.04
2019-01-05T23:00:55.672Z,87.83
2019-01-05T23:03:41.666Z,88.29
2019-01-05T23:09:15.314Z,88.58
2019-01-05T23:12:01.310Z,88.10
2019-01-05T23:14:47.308Z,88.37
2019-01-05T23:17:33.289Z,88.19
2019-01-05T23:22:53.476Z,88.13
2019-01-05T23:25:39.486Z,88.07
2019-01-05T23:28:25.495Z,88.52
2019-01-05T23:31:11.499Z,87.96
2019-01-05T23:36:45.093Z,88.20
2019-01-05T23:39:31.087Z,88.23
2019-01-05T23:42:17.113Z,88.49
2019-01-05T23:47:50.695Z,88.27
2019-01-05T23:50:36.983Z,88.04
2019-01-05T23:53:22.988Z,88.29
2019-01-05T23:56:09.001Z,88.10
2019-01-05T23:58:54.984Z,87.61
